Beaver, Kentucky
Current Conditions -  °F | °C
As of 11:55 PM on Sunday 28 Dec 2014 (Local Time) from KPBX Reporting Station
Moderate Fog Moderate Fog  
Wind Chill: 31°   Ceiling: 200
Heat Index: 37°   Visibility: 0.25mi
Dew Point: 37°   Wind: 8mph
Humidity: 99%   Direction: 360°N
Pressure: 30.13"   Gusts: NA
Location:  37.4°N, 82.65°W
Report Text: KPBX 290455Z AUTO 36007KT 1/4SM FG OVC002 03/03 A3013 RMK AO2 T00300028 401010030
Loading
Personal Weather Stations






























Interactive Weather Map New forecast layout! Learn more

10-Day Weather Forecast

Advertisements
Track Severe Weather on mobile